Chippewa on the Lake, Ohio
Current Conditions -  °F | °C
As of 1:56 PM on Thursday 30 Oct 2014 (Local Time) from KBJJ Reporting Station
Overcast Overcast  
Wind Chill: 47°   Ceiling: 4000
Heat Index: 49°   Visibility: 10mi
Dew Point: 34°   Wind: 5mph
Humidity: 56%   Direction: 240°WSW
Pressure: 30.1"   Gusts: NA
Location:  41.0673°N, 81.9012°W
Report Text: KBJJ 301756Z AUTO 24004KT 10SM OVC040 09/01 A3010 RMK AO2 SLP196 T00940011 10100 20011 58011 TSNO
Loading
Personal Weather Stations






























Interactive Weather Map
Tropical Storm Tracking
New forecast layout! Learn more

10-Day Weather Forecast

Advertisements
Track Severe Weather on mobile